Time;durP1;ratioP1;P1;durP2;ratioP2;P2;SDS_P1;SDS_P2;PMS_P1;PMS_P2;Temp;Humidity;BMP_temperature;BMP_pressure;BME280_temperature;BME280_humidity;BME280_pressure;Samples;Min_cycle;Max_cycle;Signal;HPM_P1;HPM_P2
2024/02/13 00:08:38;;;;;;;;;;;3.50;99.90;;;;;;21349504;27;19961;-79
2024/02/13 00:18:39;;;;;;;;;;;3.50;99.90;;;;;;21347973;27;19915;-79
2024/02/13 00:28:40;;;;;;;;;;;3.40;99.90;;;;;;21351790;27;19946;-79
2024/02/13 00:38:42;;;;;;;;;;;3.40;99.90;;;;;;21357469;27;19921;-80
2024/02/13 00:48:43;;;;;;;;;;;3.20;99.90;;;;;;21349842;27;19918;-80
2024/02/13 00:58:46;;;;;;;;;;;3.00;99.90;;;;;;21334991;27;19954;-79
2024/02/13 01:08:47;;;;;;;;;;;3.30;99.90;;;;;;21345927;27;19922;-78
2024/02/13 01:18:50;;;;;;;;;;;3.50;99.90;;;;;;21370488;27;19915;-80
2024/02/13 01:28:51;;;;;;;;;;;3.50;99.90;;;;;;21365592;27;20449;-80
2024/02/13 01:38:52;;;;;;;;;;;3.50;99.90;;;;;;21302071;27;19923;-80
2024/02/13 01:48:56;;;;;;;;;;;3.60;99.90;;;;;;21309948;27;19999;-80
2024/02/13 01:58:57;;;;;;;;;;;3.60;99.90;;;;;;21301775;27;19916;-80
2024/02/13 02:08:58;;;;;;;;;;;3.60;99.90;;;;;;21251863;27;19923;-80
2024/02/13 02:19:02;;;;;;;;;;;3.60;99.90;;;;;;21253104;27;20633;-79
2024/02/13 02:29:05;;;;;;;;;;;3.70;99.90;;;;;;21250242;27;19912;-79
2024/02/13 02:39:06;;;;;;;;;;;3.80;99.90;;;;;;21253702;27;19915;-80
2024/02/13 02:49:07;;;;;;;;;;;3.80;99.90;;;;;;21277644;27;19912;-78
2024/02/13 02:59:07;;;;;;;;;;;3.70;99.90;;;;;;21264622;27;19915;-77
2024/02/13 03:09:08;;;;;;;;;;;3.70;99.90;;;;;;21318606;27;20286;-80
2024/02/13 03:19:09;;;;;;;;;;;3.70;99.90;;;;;;21345095;27;19915;-79
2024/02/13 03:29:10;;;;;;;;;;;3.70;99.90;;;;;;21353339;27;19998;-78
2024/02/13 03:39:10;;;;;;;;;;;3.70;99.90;;;;;;21339200;27;20368;-80
2024/02/13 03:49:11;;;;;;;;;;;3.70;99.90;;;;;;21353388;27;19912;-80
2024/02/13 03:59:13;;;;;;;;;;;3.70;99.90;;;;;;21355713;27;19926;-80
2024/02/13 04:09:13;;;;;;;;;;;3.50;99.90;;;;;;21355348;27;20309;-79
2024/02/13 04:19:14;;;;;;;;;;;3.50;99.90;;;;;;21359474;27;19915;-79
2024/02/13 04:29:16;;;;;;;;;;;3.40;99.90;;;;;;21347050;27;20404;-79
2024/02/13 04:39:17;;;;;;;;;;;3.40;99.90;;;;;;21392409;27;19903;-78
2024/02/13 04:49:17;;;;;;;;;;;3.40;99.90;;;;;;21424161;27;19915;-77
2024/02/13 04:59:21;;;;;;;;;;;3.50;99.90;;;;;;21404315;27;19940;-80
2024/02/13 05:09:23;;;;;;;;;;;3.60;99.90;;;;;;21344571;27;19919;-80
2024/02/13 05:19:23;;;;;;;;;;;3.60;99.90;;;;;;21370647;27;19915;-79
2024/02/13 05:29:24;;;;;;;;;;;3.60;99.90;;;;;;21358402;27;19936;-80
2024/02/13 05:39:25;;;;;;;;;;;3.60;99.90;;;;;;21354952;27;20212;-80
2024/02/13 05:49:26;;;;;;;;;;;3.50;99.90;;;;;;21364996;27;19918;-80
2024/02/13 05:59:29;;;;;;;;;;;3.30;99.90;;;;;;21354297;27;19958;-81
2024/02/13 06:09:30;;;;;;;;;;;3.10;99.90;;;;;;21349350;27;19915;-80
2024/02/13 06:19:31;;;;;;;;;;;2.90;99.90;;;;;;21370968;27;20352;-81
2024/02/13 06:29:31;;;;;;;;;;;2.70;99.90;;;;;;21368357;27;19963;-80
2024/02/13 06:39:32;;;;;;;;;;;2.60;99.90;;;;;;21352231;27;19915;-78
2024/02/13 06:49:33;;;;;;;;;;;2.40;99.90;;;;;;21325521;27;20285;-80
2024/02/13 06:59:34;;;;;;;;;;;2.50;99.90;;;;;;21337267;27;19915;-78
2024/02/13 07:09:34;;;;;;;;;;;2.30;99.90;;;;;;21380033;27;19926;-80
2024/02/13 07:19:35;;;;;;;;;;;2.80;99.90;;;;;;21367621;27;19919;-80
2024/02/13 07:29:39;;;;;;;;;;;2.60;99.90;;;;;;21337869;27;19912;-80
2024/02/13 07:39:40;;;;;;;;;;;2.50;99.90;;;;;;21337149;27;19915;-79
2024/02/13 07:49:41;;;;;;;;;;;3.00;99.90;;;;;;21378854;27;19922;-78
2024/02/13 07:59:45;;;;;;;;;;;4.30;99.90;;;;;;21385919;27;19922;-81
2024/02/13 08:09:46;;;;;;;;;;;4.30;99.90;;;;;;21360706;27;19914;-78
2024/02/13 08:19:47;;;;;;;;;;;5.20;99.90;;;;;;21367137;27;19922;-81
2024/02/13 08:29:47;;;;;;;;;;;5.10;99.90;;;;;;21336727;27;19911;-80
2024/02/13 08:39:48;;;;;;;;;;;4.90;99.90;;;;;;21338433;27;19919;-82
2024/02/13 08:49:48;;;;;;;;;;;5.70;99.90;;;;;;21291908;27;19934;-81
2024/02/13 08:59:52;;;;;;;;;;;6.00;99.90;;;;;;21296456;27;19967;-81
2024/02/13 09:09:52;;;;;;;;;;;8.00;99.90;;;;;;21346244;27;19915;-81
2024/02/13 09:19:53;;;;;;;;;;;8.30;99.90;;;;;;21335035;27;19925;-81
2024/02/13 09:29:53;;;;;;;;;;;8.20;99.90;;;;;;21349885;27;19911;-79
2024/02/13 09:39:55;;;;;;;;;;;9.90;99.90;;;;;;21362534;27;19919;-79
2024/02/13 09:49:57;;;;;;;;;;;10.70;99.90;;;;;;21377144;27;20044;-79
2024/02/13 10:00:01;;;;;;;;;;;10.60;99.90;;;;;;21357577;27;19922;-79
2024/02/13 10:10:03;;;;;;;;;;;10.90;99.90;;;;;;21355114;27;19922;-80
2024/02/13 10:20:06;;;;;;;;;;;10.50;99.90;;;;;;21367311;27;20006;-80
2024/02/13 10:30:07;;;;;;;;;;;10.50;99.90;;;;;;21364583;27;19911;-80
2024/02/13 10:40:10;;;;;;;;;;;10.00;99.90;;;;;;21367460;27;19984;-80
2024/02/13 10:50:11;;;;;;;;;;;10.30;99.90;;;;;;21367289;27;19930;-81
2024/02/13 11:00:18;;;;;;;;;;;9.90;99.90;;;;;;21331138;27;19915;-80
2024/02/13 11:10:19;;;;;;;;;;;11.00;99.90;;;;;;21293561;27;19919;-79
2024/02/13 11:20:24;;;;;;;;;;;11.20;99.90;;;;;;21277918;27;20445;-79
2024/02/13 11:30:24;;;;;;;;;;;11.30;99.90;;;;;;21288867;27;19926;-79
2024/02/13 11:40:25;;;;;;;;;;;12.00;99.90;;;;;;21315526;27;20330;-80
2024/02/13 11:50:26;;;;;;;;;;;12.10;99.90;;;;;;21261497;27;20342;-80
2024/02/13 12:00:27;;;;;;;;;;;11.20;99.90;;;;;;21329179;27;19922;-81
2024/02/13 12:10:28;;;;;;;;;;;12.40;99.90;;;;;;21357659;27;19950;-80
2024/02/13 12:20:29;;;;;;;;;;;11.60;99.90;;;;;;21328738;27;19915;-80
2024/02/13 12:30:33;;;;;;;;;;;11.90;99.90;;;;;;21291790;27;19920;-80
2024/02/13 12:40:34;;;;;;;;;;;11.80;99.90;;;;;;21305200;27;19916;-79
2024/02/13 12:50:39;;;;;;;;;;;11.40;99.90;;;;;;21313932;27;19916;-80
2024/02/13 13:00:45;;;;;;;;;;;12.10;99.90;;;;;;21296413;27;19999;-80
2024/02/13 13:10:46;;;;;;;;;;;12.00;99.90;;;;;;21308447;27;19919;-79
2024/02/13 13:20:47;;;;;;;;;;;12.60;99.90;;;;;;21309195;27;19922;-80
2024/02/13 13:30:57;;;;;;;;;;;12.90;99.90;;;;;;21315300;27;19918;-80
2024/02/13 13:41:01;;;;;;;;;;;12.30;99.90;;;;;;21293204;27;19916;-80
2024/02/13 13:51:02;;;;;;;;;;;12.30;99.90;;;;;;21324519;27;19918;-80
2024/02/13 14:01:05;;;;;;;;;;;13.10;99.90;;;;;;21292681;27;19923;-80
2024/02/13 14:11:06;;;;;;;;;;;12.90;99.90;;;;;;21328085;27;19961;-79
2024/02/13 14:21:13;;;;;;;;;;;13.80;99.90;;;;;;21319458;27;20358;-79
2024/02/13 14:31:15;;;;;;;;;;;14.30;99.90;;;;;;21303015;27;19912;-79
2024/02/13 14:41:16;;;;;;;;;;;15.50;99.90;;;;;;21277277;27;19922;-79
2024/02/13 14:51:18;;;;;;;;;;;15.10;99.90;;;;;;21301092;27;19911;-79
2024/02/13 15:01:19;;;;;;;;;;;15.30;99.90;;;;;;21307276;27;19915;-80
2024/02/13 15:11:19;;;;;;;;;;;14.90;99.90;;;;;;21337095;27;20005;-80
2024/02/13 15:21:20;;;;;;;;;;;13.90;99.90;;;;;;21299478;27;20298;-80
2024/02/13 15:31:22;;;;;;;;;;;15.40;99.90;;;;;;21347124;27;19911;-79
2024/02/13 15:51:43;;;;;;;;;;;15.80;99.90;;;;;;21340426;27;19911;-77
2024/02/13 16:01:45;;;;;;;;;;;15.00;99.90;;;;;;21347523;27;19955;-80
2024/02/13 16:11:46;;;;;;;;;;;14.00;99.90;;;;;;21360312;27;19915;-80
2024/02/13 16:21:46;;;;;;;;;;;13.40;99.90;;;;;;21349595;27;20013;-79
2024/02/13 16:31:52;;;;;;;;;;;12.70;99.90;;;;;;21312357;27;20274;-77
2024/02/13 16:41:53;;;;;;;;;;;11.60;99.90;;;;;;21361536;27;20389;-80
2024/02/13 16:51:53;;;;;;;;;;;9.90;99.90;;;;;;21346049;27;19954;-79
2024/02/13 17:01:56;;;;;;;;;;;9.80;99.90;;;;;;21306116;27;19922;-79
2024/02/13 17:11:57;;;;;;;;;;;9.60;99.90;;;;;;21383991;27;19972;-79
2024/02/13 17:21:57;;;;;;;;;;;8.10;99.90;;;;;;21380472;27;19959;-80
2024/02/13 17:31:58;;;;;;;;;;;7.20;99.90;;;;;;21344617;27;20413;-79
2024/02/13 17:41:59;;;;;;;;;;;7.10;99.90;;;;;;21344403;27;19922;-79
2024/02/13 17:52:00;;;;;;;;;;;6.30;99.90;;;;;;21366546;27;19963;-79
2024/02/13 18:02:01;;;;;;;;;;;5.40;99.90;;;;;;21359712;27;19915;-80
2024/02/13 18:12:04;;;;;;;;;;;5.30;99.90;;;;;;21368421;27;19915;-79
2024/02/13 18:22:06;;;;;;;;;;;5.10;99.90;;;;;;21345914;27;20548;-80
2024/02/13 18:32:07;;;;;;;;;;;5.10;99.90;;;;;;21295059;27;20322;-80
2024/02/13 18:42:07;;;;;;;;;;;5.10;99.90;;;;;;21281831;27;19914;-79
2024/02/13 18:52:08;;;;;;;;;;;4.80;99.90;;;;;;21291592;27;19911;-80
2024/02/13 19:02:10;;;;;;;;;;;5.00;99.90;;;;;;21271046;27;19921;-79
2024/02/13 19:12:10;;;;;;;;;;;4.50;99.90;;;;;;21284741;27;19966;-78
2024/02/13 19:22:11;;;;;;;;;;;4.10;99.90;;;;;;21265498;27;20385;-79
2024/02/13 19:32:12;;;;;;;;;;;4.00;99.90;;;;;;21276467;27;19912;-78
2024/02/13 19:42:13;;;;;;;;;;;3.80;99.90;;;;;;21312313;27;20005;-78
2024/02/13 19:52:14;;;;;;;;;;;3.40;99.90;;;;;;21314466;27;20279;-80
2024/02/13 20:02:18;;;;;;;;;;;3.80;99.90;;;;;;21333341;27;19970;-79
2024/02/13 20:12:20;;;;;;;;;;;3.80;99.90;;;;;;21299634;27;19958;-79
2024/02/13 20:22:21;;;;;;;;;;;3.60;99.90;;;;;;21275162;27;19916;-79
2024/02/13 20:32:22;;;;;;;;;;;3.90;99.90;;;;;;21259041;27;20302;-79
2024/02/13 20:42:23;;;;;;;;;;;3.70;99.90;;;;;;21234305;28;19919;-80
2024/02/13 20:52:27;;;;;;;;;;;3.10;99.90;;;;;;21252286;28;20375;-80
2024/02/13 21:02:28;;;;;;;;;;;3.10;99.90;;;;;;21266969;27;19916;-80
2024/02/13 21:12:30;;;;;;;;;;;3.20;99.90;;;;;;21182010;28;19916;-79
2024/02/13 21:32:50;;;;;;;;;;;3.30;99.90;;;;;;21185854;28;19933;-80
2024/02/13 21:42:51;;;;;;;;;;;3.10;99.90;;;;;;21199712;27;20378;-79
2024/02/13 21:52:52;;;;;;;;;;;3.20;99.90;;;;;;21190855;27;19957;-79
2024/02/13 22:02:52;;;;;;;;;;;3.40;99.90;;;;;;21224772;27;19923;-79
2024/02/13 22:12:53;;;;;;;;;;;3.10;99.90;;;;;;21291533;27;19915;-79
2024/02/13 22:22:54;;;;;;;;;;;3.20;99.90;;;;;;21297821;27;20453;-79
2024/02/13 22:32:55;;;;;;;;;;;3.50;99.90;;;;;;21282145;27;19911;-78
2024/02/13 22:42:55;;;;;;;;;;;3.50;99.90;;;;;;21301874;27;19919;-79
2024/02/13 22:52:58;;;;;;;;;;;3.50;99.90;;;;;;21289331;27;19911;-80
2024/02/13 23:02:58;;;;;;;;;;;3.40;99.90;;;;;;21291564;27;20373;-79
2024/02/13 23:12:59;;;;;;;;;;;3.30;99.90;;;;;;21297729;27;19980;-80
2024/02/13 23:23:00;;;;;;;;;;;3.20;99.90;;;;;;21275074;27;19915;-78
2024/02/13 23:33:01;;;;;;;;;;;3.10;99.90;;;;;;21311778;27;20610;-79
2024/02/13 23:43:02;;;;;;;;;;;3.20;99.90;;;;;;21314200;27;19915;-79
2024/02/13 23:53:03;;;;;;;;;;;3.30;99.90;;;;;;21269608;27;19911;-79
